| time (UTC) | temp F | wind direction | speed knots | gust knots | rain 1hr in | rain 24hr in | rain mn in | humidity % | barometer mb |
| 20260510164718 | 76 | 295 | 1.7 | 8.7 | 0.00 | 0.00 | 0.00 | 51 | 1018.6 |
| 20260510164215 | 76 | 75 | 0.0 | 1.7 | 0.00 | 0.00 | 0.00 | 54 | 1018.6 |
| 20260510163710 | 74 | 348 | 0.9 | 7.0 | 0.00 | 0.00 | 0.00 | 56 | 1018.7 |
| 20260510163206 | 75 | 267 | 1.7 | 3.5 | 0.00 | 0.00 | 0.00 | 52 | 1018.7 |
| 20260510162706 | 75 | 312 | 0.0 | 7.0 | 0.00 | 0.00 | 0.00 | 51 | 1018.8 |
| 20260510162203 | 77 | 238 | 3.5 | 6.1 | 0.00 | 0.00 | 0.00 | 48 | 1018.7 |
| 20260510161658 | 77 | 305 | 0.9 | 1.7 | 0.00 | 0.00 | 0.00 | 47 | 1018.7 |
| 20260510161155 | 76 | 278 | 3.5 | 5.2 | 0.00 | 0.00 | 0.00 | 50 | 1018.6 |
| 20260510160652 | 75 | 282 | 0.9 | 1.7 | 0.00 | 0.00 | 0.00 | 51 | 1018.8 |
| 20260510160147 | 75 | 259 | 1.7 | 2.6 | 0.00 | 0.00 | 0.00 | 53 | 1018.8 |
| 20260510155644 | 74 | 316 | 2.6 | 5.2 | 0.00 | 0.00 | 0.00 | 51 | 1018.6 |
| 20260510155139 | 75 | 198 | 4.3 | 5.2 | 0.00 | 0.00 | 0.00 | 51 | 1018.8 |
| 20260510154635 | 74 | 329 | 5.2 | 6.1 | 0.00 | 0.00 | 0.00 | 51 | 1018.8 |
| 20260510154131 | 75 | 238 | 1.7 | 3.5 | 0.00 | 0.00 | 0.00 | 55 | 1018.9 |
| 20260510153626 | 75 | 307 | 0.9 | 2.6 | 0.00 | 0.00 | 0.00 | 50 | 1018.9 |
| 20260510153123 | 74 | 235 | 1.7 | 2.6 | 0.00 | 0.00 | 0.00 | 60 | 1018.8 |
| 20260510152620 | 74 | 258 | 2.6 | 5.2 | 0.00 | 0.00 | 0.00 | 60 | 1019.0 |
| 20260510152116 | 74 | 37 | 0.9 | 2.6 | 0.00 | 0.00 | 0.00 | 57 | 1018.9 |
| 20260510151613 | 73 | 249 | 0.0 | 3.5 | 0.00 | 0.00 | 0.00 | 56 | 1019.1 |
| 20260510151112 | 73 | 12 | 0.9 | 1.7 | 0.00 | 0.00 | 0.00 | 56 | 1019.4 |
| 20260510150611 | 73 | 229 | 0.9 | 1.7 | 0.00 | 0.00 | 0.00 | 60 | 1019.1 |
| 20260510150108 | 73 | 246 | 1.7 | 2.6 | 0.00 | 0.00 | 0.00 | 63 | 1019.1 |
| 20260510145604 | 71 | 151 | 0.0 | 0.9 | 0.00 | 0.00 | 0.00 | 69 | 1019.3 |
| 20260510145101 | 69 | 47 | 0.9 | 1.7 | 0.00 | 0.00 | 0.00 | 66 | 1019.2 |
| 20260510144557 | 69 | 34 | 1.7 | 1.7 | 0.00 | 0.00 | 0.00 | 65 | 1019.1 |
| 20260510144053 | 69 | 322 | 0.9 | 1.7 | 0.00 | 0.00 | 0.00 | 73 | 1019.1 |
| 20260510143548 | 68 | 349 | 0.0 | 0.9 | 0.00 | 0.00 | 0.00 | 71 | 1019.0 |
| 20260510143045 | 67 | 264 | 0.0 | 0.9 | 0.00 | 0.00 | 0.00 | 73 | 1019.1 |
| 20260510142542 | 66 | 109 | 0.0 | 0.9 | 0.00 | 0.00 | 0.00 | 72 | 1019.1 |
| 20260510142039 | 64 | 281 | 0.0 | 0.9 | 0.00 | 0.00 | 0.00 | 74 | 1019.3 |
| 20260510141535 | 63 | 129 | 0.0 | 0.9 | 0.00 | 0.00 | 0.00 | 75 | 1019.4 |
| 20260510141033 | 63 | 28 | 0.0 | 1.7 | 0.00 | 0.00 | 0.00 | 79 | 1019.1 |
| 20260510140529 | 62 | 101 | 0.9 | 1.7 | 0.00 | 0.00 | 0.00 | 79 | 1019.2 |
| 20260510140029 | 62 | 17 | 0.0 | 0.9 | 0.00 | 0.00 | 0.00 | 82 | 1019.4 |
| 20260510135525 | 60 | 31 | 0.0 | 0.9 | 0.00 | 0.00 | 0.00 | 84 | 1019.4 |
| 20260510135021 | 59 | 80 | 0.0 | 0.9 | 0.00 | 0.00 | 0.00 | 85 | 1019.4 |
| 20260510134518 | 57 | 175 | 0.0 | 0.0 | 0.00 | 0.00 | 0.00 | 90 | 1019.6 |
| 20260510134015 | 57 | 314 | 0.9 | 1.7 | 0.00 | 0.00 | 0.00 | 91 | 1019.6 |
| 20260510133511 | 56 | 103 | 0.0 | 1.7 | 0.00 | 0.00 | 0.00 | 94 | 1019.5 |
| 20260510133007 | 55 | 349 | 0.0 | 0.0 | 0.00 | 0.00 | 0.00 | 99 | 1019.5 |
| 20260510132504 | 52 | 248 | 0.0 | 0.9 | 0.00 | 0.00 | 0.00 | 97 | 1019.5 |
| 20260510132001 | 52 | 241 | 0.9 | 1.7 | 0.00 | 0.00 | 0.00 | 99 | 1019.8 |
| 20260510131459 | 52 | 285 | 0.0 | 1.7 | 0.00 | 0.00 | 0.00 | 99 | 1019.9 |
| 20260510130956 | 51 | 335 | 0.9 | 1.7 | 0.00 | 0.00 | 0.00 | 99 | 1019.7 |
| 20260510130452 | 51 | 319 | 0.0 | 0.0 | 0.00 | 0.00 | 0.00 | 99 | 1019.5 |
| 20260510125949 | 50 | 119 | 0.0 | 0.0 | 0.00 | 0.00 | 0.00 | 99 | 1019.7 |
| 20260510125445 | 49 | 108 | 0.0 | 0.0 | 0.00 | 0.00 | 0.00 | 99 | 1019.8 |
| 20260510124942 | 48 | 113 | 0.0 | 0.0 | 0.00 | 0.00 | 0.00 | 99 | 1019.9 |
| 20260510124438 | 48 | 116 | 0.0 | 0.0 | 0.00 | 0.00 | 0.00 | 99 | 1019.9 |
| 20260510123935 | 48 | 67 | 0.0 | 0.0 | 0.00 | 0.00 | 0.00 | 99 | 1019.7 |
| 20260510123431 | 47 | 50 | 0.0 | 0.0 | 0.00 | 0.00 | 0.00 | 99 | 1019.7 |
| 20260510122927 | 47 | 346 | 0.0 | 0.0 | 0.00 | 0.00 | 0.00 | 99 | 1019.7 |
| 20260510122427 | 47 | 328 | 0.0 | 0.0 | 0.00 | 0.00 | 0.00 | 99 | 1019.6 |
| 20260510121924 | 46 | 243 | 0.0 | 0.0 | 0.00 | 0.00 | 0.00 | 99 | 1019.5 |
| 20260510121422 | 46 | 122 | 0.0 | 0.0 | 0.00 | 0.00 | 0.00 | 99 | 1019.5 |
| 20260510120919 | 46 | 122 | 0.0 | 0.0 | 0.00 | 0.00 | 0.00 | 99 | 1019.2 |
| 20260510120416 | 46 | 121 | 0.0 | 0.0 | 0.00 | 0.00 | 0.00 | 99 | 1019.3 |
| 20260510115912 | 45 | 130 | 0.0 | 0.0 | 0.00 | 0.00 | 0.00 | 99 | 1019.3 |
| 20260510115409 | 45 | 130 | 0.0 | 0.0 | 0.00 | 0.00 | 0.00 | 99 | 1019.3 |
| 20260510114904 | 45 | 130 | 0.0 | 0.0 | 0.00 | 0.00 | 0.00 | 99 | 1019.4 |
| 20260510114402 | 45 | 131 | 0.0 | 0.0 | 0.00 | 0.00 | 0.00 | 99 | 1019.4 |
| 20260510113857 | 44 | 131 | 0.0 | 0.0 | 0.00 | 0.00 | 0.00 | 99 | 1019.5 |
| 20260510113353 | 44 | 127 | 0.0 | 0.0 | 0.00 | 0.00 | 0.00 | 99 | 1019.4 |
| 20260510112850 | 44 | 154 | 0.0 | 0.0 | 0.00 | 0.00 | 0.00 | 99 | 1019.3 |
| 20260510112347 | 43 | 114 | 0.0 | 0.0 | 0.00 | 0.00 | 0.00 | 99 | 1019.3 |
| 20260510111843 | 43 | 111 | 0.0 | 0.0 | 0.00 | 0.00 | 0.00 | 99 | 1019.3 |
| 20260510111340 | 43 | 123 | 0.0 | 0.0 | 0.00 | 0.00 | 0.00 | 99 | 1019.0 |
| 20260510110839 | 42 | 110 | 0.0 | 0.0 | 0.00 | 0.00 | 0.00 | 99 | 1018.9 |
| 20260510110337 | 42 | 131 | 0.0 | 0.0 | 0.00 | 0.00 | 0.00 | 99 | 1018.9 |
| 20260510105833 | 42 | 119 | 0.0 | 0.0 | 0.00 | 0.00 | 0.00 | 99 | 1018.8 |
| 20260510105333 | 42 | 121 | 0.0 | 0.0 | 0.00 | 0.00 | 0.00 | 99 | 1018.9 |
| 20260510104829 | 42 | 114 | 0.0 | 0.0 | 0.00 | 0.00 | 0.00 | 99 | 1018.8 |
| 20260510104327 | 42 | 114 | 0.0 | 0.0 | 0.00 | 0.00 | 0.00 | 99 | 1018.6 |
| 20260510103823 | 42 | 114 | 0.0 | 0.0 | 0.00 | 0.00 | 0.00 | 99 | 1018.7 |
| 20260510103320 | 42 | 115 | 0.0 | 0.0 | 0.00 | 0.00 | 0.00 | 99 | 1018.5 |
| 20260510102815 | 42 | 128 | 0.0 | 0.0 | 0.00 | 0.00 | 0.00 | 99 | 1018.4 |
| 20260510102311 | 43 | 122 | 0.0 | 0.0 | 0.00 | 0.00 | 0.00 | 99 | 1018.4 |
| 20260510101808 | 43 | 115 | 0.0 | 0.0 | 0.00 | 0.00 | 0.00 | 99 | 1018.3 |
| 20260510101307 | 43 | 135 | 0.0 | 0.0 | 0.00 | 0.00 | 0.00 | 99 | 1018.4 |
| 20260510100802 | 43 | 118 | 0.0 | 0.0 | 0.00 | 0.00 | 0.00 | 99 | 1018.2 |
| 20260510100300 | 44 | 123 | 0.0 | 0.0 | 0.00 | 0.00 | 0.00 | 99 | 1018.3 |
| 20260510095755 | 44 | 113 | 0.0 | 0.0 | 0.00 | 0.00 | 0.00 | 99 | 1018.4 |
| 20260510095251 | 43 | 128 | 0.0 | 0.0 | 0.00 | 0.00 | 0.00 | 99 | 1018.1 |
| 20260510094750 | 43 | 121 | 0.0 | 0.0 | 0.00 | 0.00 | 0.00 | 99 | 1018.2 |
| 20260510094245 | 43 | 115 | 0.0 | 0.0 | 0.00 | 0.00 | 0.00 | 99 | 1018.2 |
| 20260510093742 | 43 | 118 | 0.0 | 0.0 | 0.00 | 0.00 | 0.00 | 99 | 1018.0 |
| 20260510093239 | 43 | 127 | 0.0 | 0.0 | 0.00 | 0.00 | 0.00 | 99 | 1018.1 |
| 20260510092735 | 43 | 124 | 0.0 | 0.0 | 0.00 | 0.00 | 0.00 | 99 | 1018.1 |
| 20260510092231 | 43 | 125 | 0.0 | 0.0 | 0.00 | 0.00 | 0.00 | 99 | 1018.0 |
| 20260510091727 | 43 | 125 | 0.0 | 0.0 | 0.00 | 0.00 | 0.00 | 99 | 1017.7 |
| 20260510091224 | 43 | 124 | 0.0 | 0.0 | 0.00 | 0.00 | 0.00 | 99 | 1018.0 |
| 20260510090720 | 43 | 120 | 0.0 | 0.0 | 0.00 | 0.00 | 0.00 | 99 | 1017.6 |
| 20260510090217 | 43 | 126 | 0.0 | 0.0 | 0.00 | 0.00 | 0.00 | 99 | 1017.6 |
| 20260510085712 | 43 | 119 | 0.0 | 0.0 | 0.00 | 0.00 | 0.00 | 99 | 1017.6 |
| 20260510085208 | 42 | 136 | 0.0 | 0.0 | 0.00 | 0.00 | 0.00 | 99 | 1017.6 |
| 20260510084704 | 42 | 136 | 0.0 | 0.0 | 0.00 | 0.00 | 0.00 | 99 | 1017.6 |
| 20260510084200 | 42 | 136 | 0.0 | 0.0 | 0.00 | 0.00 | 0.00 | 99 | 1017.6 |
| 20260510083658 | 42 | 144 | 0.0 | 0.0 | 0.00 | 0.00 | 0.00 | 99 | 1017.4 |
| 20260510083155 | 42 | 144 | 0.0 | 0.0 | 0.00 | 0.00 | 0.00 | 99 | 1017.6 |
| 20260510082650 | 42 | 144 | 0.0 | 0.0 | 0.00 | 0.00 | 0.00 | 99 | 1017.1 |
| 20260510082146 | 42 | 143 | 0.0 | 0.0 | 0.00 | 0.00 | 0.00 | 99 | 1017.1 |
| 20260510081641 | 42 | 137 | 0.0 | 0.0 | 0.00 | 0.00 | 0.00 | 99 | 1016.9 |
| 20260510081137 | 42 | 137 | 0.0 | 0.0 | 0.00 | 0.00 | 0.00 | 99 | 1016.9 |
| 20260510080636 | 42 | 139 | 0.0 | 0.0 | 0.00 | 0.00 | 0.00 | 99 | 1017.2 |
| 20260510080133 | 42 | 139 | 0.0 | 0.0 | 0.00 | 0.00 | 0.00 | 99 | 1017.1 |
| 20260510075631 | 42 | 139 | 0.0 | 0.0 | 0.00 | 0.00 | 0.00 | 99 | 1016.9 |
| 20260510075128 | 42 | 139 | 0.0 | 0.0 | 0.00 | 0.00 | 0.00 | 99 | 1017.1 |
| 20260510074625 | 42 | 139 | 0.0 | 0.0 | 0.00 | 0.00 | 0.00 | 99 | 1017.0 |
| 20260510074120 | 42 | 226 | 0.0 | 0.0 | 0.00 | 0.00 | 0.00 | 99 | 1017.1 |
| 20260510073616 | 42 | 229 | 0.0 | 0.0 | 0.00 | 0.00 | 0.00 | 99 | 1017.0 |
| 20260510073114 | 42 | 151 | 0.0 | 0.0 | 0.00 | 0.00 | 0.00 | 99 | 1017.0 |
| 20260510072611 | 42 | 144 | 0.0 | 0.0 | 0.00 | 0.00 | 0.00 | 99 | 1016.8 |
| 20260510072107 | 41 | 157 | 0.0 | 0.0 | 0.00 | 0.00 | 0.00 | 99 | 1017.0 |
| 20260510071602 | 41 | 153 | 0.0 | 0.0 | 0.00 | 0.00 | 0.00 | 99 | 1017.0 |
| 20260510071100 | 41 | 161 | 0.0 | 0.0 | 0.00 | 0.00 | 0.00 | 99 | 1017.0 |
| 20260510070557 | 41 | 282 | 0.0 | 0.0 | 0.00 | 0.00 | 0.00 | 99 | 1017.0 |
| 20260510070054 | 41 | 281 | 0.0 | 0.0 | 0.00 | 0.00 | 0.00 | 99 | 1017.0 |
| 20260510065550 | 42 | 280 | 0.0 | 0.0 | 0.00 | 0.00 | 0.00 | 99 | 1016.9 |
| 20260510065046 | 42 | 143 | 0.0 | 0.0 | 0.00 | 0.00 | 0.00 | 99 | 1016.8 |
| 20260510064543 | 42 | 194 | 0.0 | 0.0 | 0.00 | 0.00 | 0.00 | 99 | 1016.8 |
| 20260510064040 | 42 | 259 | 0.0 | 0.0 | 0.00 | 0.00 | 0.00 | 99 | 1016.9 |
| 20260510063537 | 42 | 133 | 0.0 | 0.0 | 0.00 | 0.00 | 0.00 | 99 | 1016.8 |
| 20260510063034 | 42 | 211 | 0.0 | 0.0 | 0.00 | 0.00 | 0.00 | 99 | 1016.9 |
| 20260510062530 | 42 | 242 | 0.0 | 0.0 | 0.00 | 0.00 | 0.00 | 99 | 1016.9 |
| 20260510062025 | 42 | 318 | 0.0 | 0.0 | 0.00 | 0.00 | 0.00 | 99 | 1016.8 |
| 20260510061522 | 42 | 318 | 0.0 | 0.0 | 0.00 | 0.00 | 0.00 | 99 | 1016.7 |
| 20260510061018 | 43 | 319 | 0.0 | 0.0 | 0.00 | 0.00 | 0.00 | 99 | 1016.6 |
| 20260510060515 | 43 | 242 | 0.0 | 0.0 | 0.00 | 0.00 | 0.00 | 99 | 1016.6 |
| 20260510060011 | 42 | 278 | 0.0 | 0.0 | 0.00 | 0.00 | 0.00 | 99 | 1016.8 |
| 20260510055507 | 42 | 276 | 0.0 | 0.0 | 0.00 | 0.00 | 0.00 | 99 | 1016.7 |
| 20260510055005 | 43 | 278 | 0.0 | 0.0 | 0.00 | 0.00 | 0.00 | 99 | 1016.7 |
| 20260510054501 | 43 | 215 | 0.0 | 0.0 | 0.00 | 0.00 | 0.00 | 99 | 1016.7 |
| 20260510053956 | 43 | 235 | 0.0 | 0.0 | 0.00 | 0.00 | 0.00 | 99 | 1016.9 |
| 20260510053451 | 43 | 293 | 0.0 | 0.0 | 0.00 | 0.00 | 0.00 | 98 | 1016.9 |
| 20260510052947 | 42 | 273 | 0.0 | 0.0 | 0.00 | 0.00 | 0.00 | 99 | 1016.9 |
| 20260510052443 | 43 | 271 | 0.0 | 0.0 | 0.00 | 0.00 | 0.00 | 98 | 1016.8 |
| 20260510051940 | 43 | 271 | 0.0 | 0.0 | 0.00 | 0.00 | 0.00 | 99 | 1016.9 |
| 20260510051436 | 44 | 257 | 0.0 | 0.0 | 0.00 | 0.00 | 0.00 | 99 | 1016.7 |
| 20260510050932 | 44 | 243 | 0.0 | 0.0 | 0.00 | 0.00 | 0.00 | 99 | 1016.7 |
| 20260510050429 | 44 | 244 | 0.0 | 0.0 | 0.00 | 0.00 | 0.00 | 99 | 1016.8 |
| 20260510045927 | 44 | 329 | 0.0 | 0.0 | 0.00 | 0.00 | 0.00 | 98 | 1016.9 |
| 20260510045424 | 44 | 317 | 0.0 | 0.0 | 0.00 | 0.00 | 0.00 | 98 | 1016.7 |
| 20260510044920 | 44 | 304 | 0.0 | 0.0 | 0.00 | 0.00 | 0.00 | 98 | 1016.7 |
| 20260510044417 | 45 | 291 | 0.0 | 0.0 | 0.00 | 0.00 | 0.00 | 98 | 1016.7 |
| 20260510043914 | 45 | 284 | 0.0 | 0.0 | 0.00 | 0.00 | 0.00 | 98 | 1016.7 |
| 20260510043410 | 45 | 251 | 0.0 | 0.0 | 0.00 | 0.00 | 0.00 | 98 | 1016.8 |
| 20260510042908 | 44 | 268 | 0.0 | 0.0 | 0.00 | 0.00 | 0.00 | 98 | 1016.8 |
| 20260510042404 | 44 | 267 | 0.0 | 0.0 | 0.00 | 0.00 | 0.00 | 98 | 1016.7 |
| 20260510041900 | 45 | 260 | 0.0 | 0.0 | 0.00 | 0.00 | 0.00 | 98 | 1016.6 |
| 20260510041357 | 45 | 249 | 0.0 | 0.0 | 0.00 | 0.00 | 0.00 | 98 | 1016.7 |
| 20260510040855 | 45 | 295 | 0.0 | 0.0 | 0.00 | 0.00 | 0.00 | 97 | 1016.7 |
| 20260510040352 | 45 | 297 | 0.0 | 0.0 | 0.00 | 0.00 | 0.00 | 97 | 1016.6 |
| 20260510035847 | 46 | 297 | 0.0 | 0.0 | 0.00 | 0.00 | 0.00 | 97 | 1016.6 |
| 20260510035343 | 46 | 299 | 0.0 | 0.0 | 0.00 | 0.00 | 0.00 | 97 | 1016.5 |
| 20260510034839 | 46 | 299 | 0.0 | 0.0 | 0.00 | 0.00 | 0.00 | 97 | 1016.5 |
| 20260510034337 | 46 | 293 | 0.0 | 0.0 | 0.00 | 0.00 | 0.00 | 96 | 1016.5 |
| 20260510033833 | 46 | 277 | 0.0 | 0.0 | 0.00 | 0.00 | 0.00 | 96 | 1016.5 |
| 20260510033330 | 46 | 273 | 0.0 | 0.0 | 0.00 | 0.00 | 0.00 | 96 | 1016.2 |
| 20260510032826 | 47 | 269 | 0.0 | 0.0 | 0.00 | 0.00 | 0.00 | 96 | 1016.4 |
| 20260510032323 | 47 | 268 | 0.0 | 0.0 | 0.00 | 0.00 | 0.00 | 96 | 1016.3 |
| 20260510031819 | 47 | 261 | 0.0 | 0.0 | 0.00 | 0.00 | 0.00 | 96 | 1016.3 |
| 20260510031315 | 47 | 276 | 0.0 | 0.0 | 0.00 | 0.00 | 0.00 | 95 | 1016.4 |
| 20260510030815 | 47 | 275 | 0.0 | 0.0 | 0.00 | 0.00 | 0.00 | 95 | 1016.5 |
| 20260510030311 | 47 | 247 | 0.0 | 0.0 | 0.00 | 0.00 | 0.00 | 95 | 1016.3 |
| 20260510025809 | 47 | 290 | 0.0 | 0.0 | 0.00 | 0.00 | 0.00 | 94 | 1016.3 |
| 20260510025306 | 48 | 286 | 0.0 | 0.0 | 0.00 | 0.00 | 0.00 | 95 | 1016.4 |
| 20260510024803 | 48 | 248 | 0.0 | 0.0 | 0.00 | 0.00 | 0.00 | 94 | 1016.4 |
| 20260510024300 | 48 | 288 | 0.0 | 0.0 | 0.00 | 0.00 | 0.00 | 92 | 1016.3 |
| 20260510023756 | 48 | 286 | 0.0 | 0.0 | 0.00 | 0.00 | 0.00 | 92 | 1016.0 |
| 20260510023253 | 49 | 286 | 0.0 | 0.0 | 0.00 | 0.00 | 0.00 | 92 | 1016.1 |
| 20260510022749 | 49 | 264 | 0.0 | 0.0 | 0.00 | 0.00 | 0.00 | 92 | 1016.0 |
| 20260510022249 | 49 | 259 | 0.0 | 0.0 | 0.00 | 0.00 | 0.00 | 92 | 1016.0 |
| 20260510021748 | 49 | 260 | 0.0 | 0.0 | 0.00 | 0.00 | 0.00 | 91 | 1016.0 |
| 20260510021247 | 50 | 253 | 0.0 | 0.0 | 0.00 | 0.00 | 0.00 | 91 | 1015.8 |
| 20260510020742 | 50 | 248 | 0.0 | 0.0 | 0.00 | 0.00 | 0.00 | 90 | 1015.8 |
| 20260510020242 | 51 | 2 | 0.0 | 0.0 | 0.00 | 0.00 | 0.00 | 88 | 1015.8 |
| 20260510015739 | 51 | 4 | 0.0 | 0.0 | 0.00 | 0.00 | 0.00 | 89 | 1015.8 |
| 20260510015235 | 51 | 358 | 0.0 | 0.0 | 0.00 | 0.00 | 0.00 | 88 | 1015.7 |
| 20260510014730 | 51 | 352 | 0.0 | 0.0 | 0.00 | 0.00 | 0.00 | 87 | 1015.2 |
| 20260510014228 | 52 | 265 | 0.0 | 0.0 | 0.00 | 0.00 | 0.00 | 87 | 1015.3 |
| 20260510013723 | 52 | 255 | 0.0 | 0.0 | 0.00 | 0.00 | 0.00 | 87 | 1015.0 |
| 20260510013219 | 52 | 231 | 0.0 | 0.0 | 0.00 | 0.00 | 0.00 | 86 | 1014.9 |
| 20260510012719 | 53 | 243 | 0.0 | 0.0 | 0.00 | 0.00 | 0.00 | 85 | 1014.8 |
| 20260510012214 | 53 | 248 | 0.0 | 0.0 | 0.00 | 0.00 | 0.00 | 86 | 1015.0 |
| 20260510011709 | 53 | 278 | 0.0 | 0.0 | 0.00 | 0.00 | 0.00 | 83 | 1014.7 |
| 20260510011205 | 54 | 260 | 0.0 | 0.0 | 0.00 | 0.00 | 0.00 | 82 | 1014.5 |
| 20260510010701 | 55 | 245 | 0.0 | 0.0 | 0.00 | 0.00 | 0.00 | 80 | 1014.6 |
| 20260510010158 | 55 | 221 | 0.0 | 0.0 | 0.00 | 0.00 | 0.00 | 80 | 1014.6 |
| 20260510005655 | 56 | 340 | 0.0 | 0.0 | 0.00 | 0.00 | 0.00 | 79 | 1014.3 |
| 20260510005151 | 56 | 301 | 0.0 | 0.0 | 0.00 | 0.00 | 0.00 | 77 | 1014.3 |
| 20260510004650 | 57 | 163 | 0.0 | 0.0 | 0.00 | 0.00 | 0.00 | 75 | 1014.5 |
| 20260510004148 | 58 | 187 | 0.0 | 0.0 | 0.00 | 0.00 | 0.00 | 75 | 1014.4 |
| 20260510003645 | 58 | 227 | 0.0 | 0.0 | 0.00 | 0.00 | 0.00 | 73 | 1014.3 |
| 20260510003140 | 59 | 120 | 0.0 | 0.0 | 0.00 | 0.00 | 0.00 | 71 | 1014.4 |
| 20260510002635 | 60 | 120 | 0.0 | 0.0 | 0.00 | 0.00 | 0.00 | 69 | 1014.3 |
| 20260510002132 | 61 | 133 | 0.0 | 0.0 | 0.00 | 0.00 | 0.00 | 67 | 1014.2 |
| 20260510001629 | 61 | 251 | 0.0 | 0.0 | 0.00 | 0.00 | 0.00 | 65 | 1013.9 |
| 20260510001128 | 62 | 237 | 0.0 | 0.0 | 0.00 | 0.00 | 0.00 | 64 | 1014.0 |
| 20260510000627 | 63 | 284 | 0.0 | 0.0 | 0.00 | 0.00 | 0.00 | 60 | 1013.9 |
| 20260510000125 | 64 | 305 | 0.0 | 0.0 | 0.00 | 0.00 | 0.00 | 59 | 1013.7 |
| 20260509235621 | 64 | 257 | 0.0 | 0.0 | 0.00 | 0.00 | 0.00 | 58 | 1013.8 |
| 20260509235118 | 65 | 305 | 0.0 | 0.0 | 0.00 | 0.00 | 0.00 | 55 | 1013.7 |
| 20260509234614 | 65 | 305 | 0.9 | 1.7 | 0.00 | 0.00 | 0.00 | 54 | 1013.5 |
| 20260509234112 | 65 | 268 | 0.0 | 0.9 | 0.00 | 0.00 | 0.00 | 55 | 1013.5 |
| 20260509233610 | 66 | 348 | 0.0 | 0.9 | 0.00 | 0.00 | 0.00 | 54 | 1013.3 |
| 20260509233107 | 67 | 282 | 0.0 | 1.7 | 0.00 | 0.00 | 0.00 | 52 | 1013.5 |
| 20260509232603 | 67 | 296 | 0.0 | 2.6 | 0.00 | 0.00 | 0.00 | 54 | 1013.3 |
| 20260509232100 | 67 | 242 | 0.9 | 1.7 | 0.00 | 0.00 | 0.00 | 53 | 1013.3 |
| 20260509231556 | 67 | 193 | 1.7 | 1.7 | 0.00 | 0.00 | 0.00 | 53 | 1013.3 |
| 20260509231054 | 67 | 267 | 3.5 | 5.2 | 0.00 | 0.00 | 0.00 | 54 | 1013.2 |
| 20260509230550 | 67 | 248 | 0.9 | 1.7 | 0.00 | 0.00 | 0.00 | 53 | 1013.3 |
| 20260509230048 | 67 | 250 | 1.7 | 2.6 | 0.00 | 0.00 | 0.00 | 52 | 1013.3 |
| 20260509225543 | 68 | 269 | 0.9 | 2.6 | 0.00 | 0.00 | 0.00 | 51 | 1013.2 |
| 20260509225039 | 68 | 243 | 3.5 | 3.5 | 0.00 | 0.00 | 0.00 | 52 | 1013.3 |
| 20260509224535 | 68 | 291 | 1.7 | 2.6 | 0.00 | 0.00 | 0.00 | 50 | 1013.5 |
| 20260509224032 | 68 | 288 | 1.7 | 1.7 | 0.00 | 0.00 | 0.00 | 48 | 1013.3 |
| 20260509223529 | 68 | 306 | 0.9 | 3.5 | 0.00 | 0.00 | 0.00 | 52 | 1013.5 |
| 20260509223027 | 68 | 300 | 1.7 | 2.6 | 0.00 | 0.00 | 0.00 | 49 | 1013.5 |
| 20260509222522 | 68 | 307 | 0.9 | 5.2 | 0.00 | 0.00 | 0.00 | 50 | 1013.7 |
| 20260509222018 | 68 | 235 | 1.7 | 1.7 | 0.00 | 0.00 | 0.00 | 51 | 1013.7 |
| 20260509221514 | 69 | 309 | 1.7 | 2.6 | 0.00 | 0.00 | 0.00 | 51 | 1013.6 |
| 20260509221010 | 69 | 287 | 1.7 | 2.6 | 0.00 | 0.00 | 0.00 | 48 | 1013.7 |
| 20260509220506 | 69 | 276 | 2.6 | 7.8 | 0.00 | 0.00 | 0.00 | 49 | 1013.6 |
| 20260509220003 | 69 | 277 | 2.6 | 5.2 | 0.00 | 0.00 | 0.00 | 48 | 1013.7 |
| 20260509215458 | 69 | 266 | 0.9 | 1.7 | 0.00 | 0.00 | 0.00 | 49 | 1013.5 |
| 20260509214956 | 69 | 246 | 0.0 | 0.9 | 0.00 | 0.00 | 0.00 | 52 | 1013.5 |
| 20260509214453 | 69 | 298 | 1.7 | 5.2 | 0.00 | 0.00 | 0.00 | 48 | 1013.5 |
| 20260509213949 | 69 | 266 | 1.7 | 2.6 | 0.00 | 0.00 | 0.00 | 50 | 1013.6 |
| 20260509213445 | 69 | 250 | 0.0 | 2.6 | 0.00 | 0.00 | 0.00 | 51 | 1013.5 |
| 20260509212943 | 70 | 281 | 0.0 | 0.9 | 0.00 | 0.00 | 0.00 | 50 | 1013.3 |
| 20260509212440 | 69 | 297 | 0.9 | 1.7 | 0.00 | 0.00 | 0.00 | 46 | 1013.3 |
| 20260509211936 | 69 | 274 | 0.9 | 2.6 | 0.00 | 0.00 | 0.00 | 47 | 1013.3 |
| 20260509211432 | 69 | 260 | 1.7 | 2.6 | 0.00 | 0.00 | 0.00 | 48 | 1013.2 |
| 20260509210928 | 70 | 295 | 2.6 | 5.2 | 0.00 | 0.00 | 0.00 | 46 | 1013.1 |
| 20260509210426 | 69 | 54 | 1.7 | 2.6 | 0.00 | 0.00 | 0.00 | 53 | 1013.2 |
| 20260509205921 | 69 | 291 | 0.9 | 0.9 | 0.00 | 0.00 | 0.00 | 49 | 1013.0 |
| 20260509205420 | 69 | 278 | 0.9 | 2.6 | 0.00 | 0.00 | 0.00 | 48 | 1013.1 |
| 20260509204917 | 69 | 281 | 1.7 | 3.5 | 0.00 | 0.00 | 0.00 | 46 | 1012.9 |
| 20260509204413 | 69 | 287 | 3.5 | 5.2 | 0.00 | 0.00 | 0.00 | 45 | 1013.0 |
| 20260509203910 | 70 | 275 | 1.7 | 3.5 | 0.00 | 0.00 | 0.00 | 48 | 1012.8 |
| 20260509203406 | 70 | 283 | 1.7 | 3.5 | 0.00 | 0.00 | 0.00 | 45 | 1012.8 |
| 20260509202904 | 70 | 234 | 0.9 | 1.7 | 0.00 | 0.00 | 0.00 | 49 | 1013.0 |
| 20260509202359 | 70 | 297 | 1.7 | 3.5 | 0.00 | 0.00 | 0.00 | 47 | 1012.7 |
| 20260509201854 | 70 | 333 | 1.7 | 3.5 | 0.00 | 0.00 | 0.00 | 48 | 1012.8 |
| 20260509201350 | 70 | 47 | 3.5 | 5.2 | 0.00 | 0.00 | 0.00 | 46 | 1012.7 |
| 20260509200847 | 70 | 298 | 1.7 | 2.6 | 0.00 | 0.00 | 0.00 | 47 | 1012.5 |
| 20260509200342 | 70 | 275 | 2.6 | 3.5 | 0.00 | 0.00 | 0.00 | 46 | 1012.6 |
| 20260509195839 | 70 | 247 | 1.7 | 6.1 | 0.00 | 0.00 | 0.00 | 47 | 1012.6 |
| 20260509195339 | 70 | 237 | 7.0 | 7.8 | 0.00 | 0.00 | 0.00 | 46 | 1012.5 |
| 20260509194839 | 69 | 246 | 1.7 | 1.7 | 0.00 | 0.00 | 0.00 | 50 | 1012.6 |
| 20260509194335 | 69 | 224 | 5.2 | 8.7 | 0.00 | 0.00 | 0.00 | 47 | 1012.5 |
| 20260509193833 | 70 | 206 | 1.7 | 3.5 | 0.00 | 0.00 | 0.00 | 49 | 1012.6 |
| 20260509193332 | 70 | 206 | 1.7 | 3.5 | 0.00 | 0.00 | 0.00 | 49 | 1012.6 |
| 20260509192829 | 70 | 282 | 0.9 | 3.5 | 0.00 | 0.00 | 0.00 | 45 | 1012.5 |
| 20260509192325 | 71 | 259 | 0.0 | 3.5 | 0.00 | 0.00 | 0.00 | 46 | 1012.5 |
| 20260509191820 | 73 | 292 | 2.6 | 5.2 | 0.00 | 0.00 | 0.00 | 40 | 1012.5 |
| 20260509191316 | 73 | 287 | 0.9 | 5.2 | 0.00 | 0.00 | 0.00 | 51 | 1012.5 |
| 20260509190812 | 71 | 279 | 2.6 | 6.1 | 0.00 | 0.00 | 0.00 | 45 | 1012.3 |
| 20260509190310 | 71 | 253 | 5.2 | 6.1 | 0.00 | 0.00 | 0.00 | 45 | 1012.3 |
| 20260509185807 | 71 | 315 | 3.5 | 7.0 | 0.00 | 0.00 | 0.00 | 44 | 1012.2 |
| 20260509185306 | 71 | 215 | 0.0 | 0.9 | 0.00 | 0.00 | 0.00 | 51 | 1012.6 |
| 20260509184800 | 71 | 232 | 2.6 | 9.6 | 0.00 | 0.00 | 0.00 | 45 | 1012.6 |
| 20260509184258 | 71 | 296 | 0.0 | 1.7 | 0.00 | 0.00 | 0.00 | 52 | 1012.8 |
| 20260509183754 | 71 | 286 | 0.0 | 1.7 | 0.00 | 0.00 | 0.00 | 52 | 1012.6 |
| 20260509183249 | 71 | 237 | 1.7 | 3.5 | 0.00 | 0.00 | 0.00 | 51 | 1012.7 |
| 20260509182745 | 72 | 257 | 1.7 | 1.7 | 0.00 | 0.00 | 0.00 | 45 | 1012.6 |
| 20260509182243 | 72 | 305 | 1.7 | 3.5 | 0.00 | 0.00 | 0.00 | 47 | 1012.6 |
| 20260509181740 | 72 | 309 | 1.7 | 5.2 | 0.00 | 0.00 | 0.00 | 45 | 1012.5 |
| 20260509181237 | 71 | 296 | 0.9 | 3.5 | 0.00 | 0.00 | 0.00 | 45 | 1012.5 |
| 20260509180734 | 71 | 333 | 1.7 | 2.6 | 0.00 | 0.00 | 0.00 | 44 | 1012.6 |
| 20260509180226 | 70 | 219 | 5.2 | 7.0 | 0.00 | 0.00 | 0.00 | 46 | 1012.6 |
| 20260509175722 | 70 | 245 | 1.7 | 7.8 | 0.00 | 0.00 | 0.00 | 49 | 1012.5 |
| 20260509175218 | 71 | 247 | 2.6 | 3.5 | 0.00 | 0.00 | 0.00 | 45 | 1012.6 |
| 20260509174714 | 71 | 278 | 3.5 | 5.2 | 0.00 | 0.00 | 0.00 | 53 | 1012.8 |
| 20260509174209 | 72 | 192 | 0.9 | 2.6 | 0.00 | 0.00 | 0.00 | 49 | 1012.9 |
| 20260509173706 | 70 | 315 | 0.0 | 1.7 | 0.00 | 0.00 | 0.00 | 57 | 1012.9 |
| 20260509173202 | 69 | 313 | 1.7 | 2.6 | 0.00 | 0.00 | 0.00 | 52 | 1012.9 |
| 20260509172658 | 69 | 204 | 0.0 | 1.7 | 0.00 | 0.00 | 0.00 | 56 | 1013.1 |
| 20260509172154 | 69 | 67 | 0.9 | 3.5 | 0.00 | 0.00 | 0.00 | 55 | 1013.1 |
| 20260509171650 | 71 | 276 | 0.9 | 3.5 | 0.00 | 0.00 | 0.00 | 58 | 1013.5 |
| 20260509171146 | 69 | 311 | 0.9 | 2.6 | 0.00 | 0.00 | 0.00 | 53 | 1013.2 |
| 20260509170643 | 68 | 276 | 1.7 | 2.6 | 0.00 | 0.00 | 0.00 | 54 | 1013.7 |
| 20260509170139 | 68 | 268 | 0.9 | 1.7 | 0.00 | 0.00 | 0.00 | 56 | 1013.5 |
| 20260509165638 | 68 | 233 | 0.0 | 1.7 | 0.00 | 0.00 | 0.00 | 59 | 1013.3 |
| 20260509165133 | 69 | 296 | 0.0 | 0.9 | 0.00 | 0.00 | 0.00 | 54 | 1013.3 |